METAR Data
IDs: Format: Raw Decoded Include TAF

Data at: 1113 UTC 16 Feb 2019

PALG 152056Z AUTO 08015G21KT 10SM CLR M08/M11 A2986 RMK AO2 SLP118 T10781106 58022 FZRANO
PALG 151956Z AUTO 08013G21KT 10SM CLR M09/M12 A2990 RMK AO2 SLP130 T10941117 FZRANO
PALG 151856Z AUTO 08012G20KT 10SM CLR M09/M12 A2993 RMK AO2 SLP141 T10941117 FZRANO
PALG 151805Z AUTO 08011G22KT 10SM SCT026 M09/M11 A2993 RMK AO2 FZRANO
PALG 151756Z AUTO 08010G19KT 10SM BKN026 M09/M11 A2993 RMK AO2 SLP140 T10941106 11078 21094 58023 FZRANO
PALG 151656Z AUTO 09008KT 10SM OVC028 M09/M11 A2995 RMK AO2 SLP148 T10941106 FZRANO
PALG 151638Z AUTO 08006KT 10SM OVC028 M09/M11 A2996 RMK AO2 FZRANO
PALG 151609Z AUTO 09008G14KT 10SM SCT009 BKN032 M09/M11 A2998 RMK AO2 FZRANO
PALG 151556Z AUTO 08009KT 10SM BKN009 OVC032 M08/M10 A2998 RMK AO2 SLP157 T10831100 FZRANO
PALG 151456Z AUTO 09010KT 10SM OVC009 M08/M09 A3000 RMK AO2 SLP163 T10781094 58014 FZRANO
PALG 151356Z AUTO 08007KT 10SM OVC009 M08/M09 A3002 RMK AO2 SLP172 T10831094 FZRANO
PALG 151256Z AUTO 09007KT 10SM OVC009 M08/M09 A3004 RMK AO2 SLP177 T10831094 FZRANO
PALG 151234Z AUTO 09008KT 10SM BKN009 OVC015 M08/M09 A3004 RMK AO2 FZRANO
PALG 151156Z AUTO 10008KT 10SM OVC011 M08/M09 A3004 RMK AO2 SLP177 60000 T10781089 11078 21094 50009 FZRANO
PALG 151056Z AUTO 09007KT 10SM OVC011 M08/M09 A3004 RMK AO2 SLP177 T10781094 FZRANO
PALG 150956Z AUTO 08007KT 10SM OVC011 M08/M09 A3004 RMK AO2 SNE36 SLP177 P0000 T10831094 FZRANO
PALG 150856Z AUTO 10008KT 7SM -SN OVC013 M08/M10 A3001 RMK AO2 SLP168 P0000 60000 T10831100 410831150 53012 FZRANO
PALG 150756Z AUTO 08009KT 5SM -SN BR OVC013 M09/M10 A3000 RMK AO2 SLP163 P0000 T10891100 FZRANO
PALG 150730Z AUTO 09007G20KT 9SM -SN OVC013 M09/M10 A3000 RMK AO2 P0000 FZRANO
PALG 150656Z AUTO 09013G18KT 8SM -SN BKN017 OVC029 M09/M11 A2999 RMK AO2 SNE0557B15 SLP159 P0000 T10891106 FZRANO
PALG 150556Z AUTO 08013G18KT 9SM -SN FEW012 BKN017 OVC032 M09/M11 A2998 RMK AO2 SLP156 P0000 60000 T10941111 11089 21094 53003 FZRANO
PALG 150456Z AUTO 09009G17KT 7SM -SN OVC017 M09/M11 A2997 RMK AO2 SLP155 P0000 T10941111 FZRANO
PALG 150356Z AUTO 08010G15KT 3SM -SN BR BKN022 OVC027 M09/M11 A2996 RMK AO2 SLP152 P0000 T10941111 FZRANO
PALG 150346Z AUTO 08008G16KT 5SM -SN BR SCT022 BKN026 OVC041 M09/M11 A2997 RMK AO2 P0000 FZRANO
PALG 150335Z AUTO 08010G16KT 2SM -SN BR SCT022 BKN027 OVC041 M09/M11 A2997 RMK AO2 P0000 FZRANO
PALG 150330Z AUTO 08012G16KT 1 3/4SM -SN BR FEW014 BKN022 OVC039 M09/M11 A2997 RMK AO2 P0000 FZRANO
PALG 150319Z AUTO 08008G15KT 1SM -SN BR SCT014 OVC020 M09/M11 A2997 RMK AO2 P0000 FZRANO
PALG 150256Z AUTO 08008KT 3/4SM -SN BR OVC014 M09/M12 A2997 RMK AO2 SLP152 P0000 60000 T10941117 58007 FZRANO
PALG 150241Z AUTO 09011G15KT 1SM -SN OVC012 M09/M12 A2997 RMK AO2 P0000 FZRANO
PALG 150215Z AUTO 08008KT 1/2SM SN BKN013 BKN019 OVC024 M09/M13 A2997 RMK AO2 P0000 FZRANO
PALG 150211Z AUTO 08008KT 3/4SM -SN BKN015 BKN019 OVC033 M09/M13 A2998 RMK AO2 P0000 FZRANO
PALG 150202Z AUTO 08008G15KT 1 3/4SM -SN SCT019 BKN024 OVC033 M09/M13 A2998 RMK AO2 VIS 1 1/4V4 P0000 FZRANO
PALG 150156Z AUTO 08009G15KT 3SM -SN FEW019 BKN024 OVC033 M09/M13 A2997 RMK AO2 SLP155 P0000 T10891128 FZRANO
PALG 150146Z AUTO 08008G15KT 3SM -SN SCT021 BKN030 OVC035 M09/M13 A2997 RMK AO2 P0000 FZRANO
PALG 150139Z AUTO 08008G15KT 2 1/2SM -SN BKN021 BKN027 OVC035 M09/M13 A2998 RMK AO2 P0000 FZRANO
PALG 150110Z AUTO 07010G14KT 3SM -SN SCT017 BKN027 OVC034 M09/M14 A2998 RMK AO2 P0000 FZRANO
PALG 150056Z AUTO 07007KT 1 1/2SM -SN BKN017 OVC022 M09/M14 A3000 RMK AO2 SLP162 P0000 T10891144 FZRANO
PALG 150051Z AUTO 07007KT 1 3/4SM -SN BKN017 BKN022 OVC030 M09/M15 A2999 RMK AO2 P0000 FZRANO
PALG 150046Z AUTO 08009KT 3SM -SN BKN017 BKN022 OVC037 M09/M16 A2999 RMK AO2 P0000 FZRANO
PALG 142356Z AUTO 08008G15KT 10SM -SN SCT037 BKN047 OVC055 M09/M16 A2999 RMK AO2 SNB56 SLP160 P0000 60000 T10891161 11089 21122 56029 FZRANO